Time;durP1;ratioP1;P1;durP2;ratioP2;P2;SDS_P1;SDS_P2;PMS_P1;PMS_P2;Temp;Humidity;BMP_temperature;BMP_pressure;BME280_temperature;BME280_humidity;BME280_pressure;Samples;Min_cycle;Max_cycle;Signal;HPM_P1;HPM_P2
2022/12/07 00:05:01;;;;;;;8.97;5.73;;;;;;;2.00;100.00;100123.78;5147598;55;1136732;-66
2022/12/07 00:10:07;;;;;;;11.77;5.03;;;;;;;2.01;100.00;100118.95;5197853;55;1136696;-67
2022/12/07 00:15:13;;;;;;;9.10;5.97;;;;;;;2.03;100.00;100121.03;5214942;54;1138884;-68
2022/12/07 00:20:19;;;;;;;11.10;6.70;;;;;;;2.05;100.00;100120.95;5283841;54;1136732;-68
2022/12/07 00:25:24;;;;;;;9.30;6.03;;;;;;;2.07;100.00;100116.05;5241007;54;1138736;-70
2022/12/07 00:30:31;;;;;;;15.87;6.53;;;;;;;2.07;100.00;100110.84;5217564;54;1136768;-69
2022/12/07 00:35:37;;;;;;;11.25;6.50;;;;;;;2.10;100.00;100108.54;5205061;55;1138972;-69
2022/12/07 00:40:43;;;;;;;7.00;5.00;;;;;;;2.14;100.00;100111.85;5191970;55;1138795;-68
2022/12/07 00:45:49;;;;;;;12.57;8.40;;;;;;;2.14;100.00;100106.14;5115897;56;1136899;-68
2022/12/07 00:50:55;;;;;;;9.23;6.07;;;;;;;2.18;100.00;100099.86;5113419;56;1138766;-67
2022/12/07 00:56:18;;;;;;;12.80;7.45;;;;;;;2.17;100.00;100099.94;5130819;56;1136805;-69
2022/12/07 01:01:25;;;;;;;14.10;8.47;;;;;;;2.19;100.00;100090.27;5178510;54;1139167;-67
2022/12/07 01:06:32;;;;;;;11.90;6.50;;;;;;;2.19;100.00;100083.75;5215921;54;1138811;-68
2022/12/07 01:11:38;;;;;;;14.20;8.30;;;;;;;2.23;100.00;100083.98;5206852;54;1139038;-69
2022/12/07 01:16:43;;;;;;;15.80;9.07;;;;;;;2.21;100.00;100078.00;5285456;54;1138688;-69
2022/12/07 01:21:49;;;;;;;13.70;7.90;;;;;;;2.23;100.00;100083.53;5259540;54;1138790;-68
2022/12/07 01:26:54;;;;;;;14.73;8.00;;;;;;;2.27;100.00;100081.16;5266419;54;1138777;-67
2022/12/07 01:32:00;;;;;;;15.17;9.53;;;;;;;2.29;100.00;100075.86;5297864;54;1138899;-67
2022/12/07 01:37:07;;;;;;;17.70;10.80;;;;;;;2.30;100.00;100074.91;5303035;54;1138690;-69
2022/12/07 01:42:14;;;;;;;11.70;8.07;;;;;;;2.29;100.00;100076.67;5190765;55;1141027;-67
2022/12/07 01:47:19;;;;;;;18.30;10.07;;;;;;;2.31;100.00;100078.75;5048657;57;1138798;-68
2022/12/07 01:52:31;;;;;;;15.33;8.20;;;;;;;2.34;100.00;100076.45;5028730;57;1140830;-69
2022/12/07 01:57:42;;;;;;;14.07;8.23;;;;;;;2.34;100.00;100079.91;5213825;55;1138675;-69
2022/12/07 02:02:58;;;;;;;12.90;8.70;;;;;;;2.32;100.00;100080.90;5029019;57;1138776;-68
2022/12/07 02:08:05;;;;;;;17.33;8.73;;;;;;;2.35;100.00;100076.84;5233436;55;1138676;-68
2022/12/07 02:13:23;;;;;;;13.63;8.60;;;;;;;2.38;100.00;100072.77;5278985;54;1138830;-67
2022/12/07 02:18:56;;;;;;;15.03;8.67;;;;;;;2.40;100.00;100072.24;5285047;54;1138931;-67
2022/12/07 02:24:08;;;;;;;16.63;8.63;;;;;;;2.40;100.00;100057.88;5280552;54;1138814;-69
2022/12/07 02:29:34;;;;;;;12.88;7.65;;;;;;;2.39;100.00;100043.15;5314116;54;1138831;-68
2022/12/07 02:34:42;;;;;;;;;;;;;;;2.42;100.00;100041.23;5210965;54;1138833;-70
2022/12/07 02:40:00;;;;;;;17.52;8.63;;;;;;;2.44;100.00;100048.98;5204562;54;974035;-70
2022/12/07 02:45:08;;;;;;;17.47;10.20;;;;;;;2.45;100.00;100042.81;5209666;54;1136885;-67
2022/12/07 02:50:14;;;;;;;11.73;7.13;;;;;;;2.42;100.00;100041.23;5189274;54;1140824;-66
2022/12/07 02:55:24;;;;;;;15.00;9.03;;;;;;;2.39;100.00;100047.91;5176422;55;1138784;-68
2022/12/07 03:00:36;;;;;;;17.40;10.35;;;;;;;2.38;100.00;100044.06;5203230;55;1138614;-70
2022/12/07 03:06:09;;;;;;;20.70;9.90;;;;;;;2.38;100.00;100040.16;5165374;55;1140779;-69
2022/12/07 03:11:26;;;;;;;15.03;8.15;;;;;;;2.37;100.00;100038.47;5140301;55;1138744;-70
2022/12/07 03:16:42;;;;;;;11.93;7.30;;;;;;;2.42;100.00;100043.00;5111729;55;1138776;-70
2022/12/07 03:22:07;;;;;;;17.37;8.43;;;;;;;2.41;100.00;100038.23;5091377;55;1138770;-66
2022/12/07 03:27:28;;;;;;;12.27;7.27;;;;;;;2.39;100.00;100041.38;5091141;55;1138822;-69
2022/12/07 03:32:52;;;;;;;13.73;7.30;;;;;;;2.36;100.00;100045.91;5084882;55;1141810;-66
2022/12/07 03:38:02;;;;;;;14.83;7.53;;;;;;;2.27;100.00;100043.33;5133800;55;1139062;-67
2022/12/07 03:43:09;;;;;;;10.50;6.83;;;;;;;2.17;100.00;100042.55;5202975;55;1138723;-68
2022/12/07 03:48:32;;;;;;;8.73;6.47;;;;;;;2.05;100.00;100047.47;5237719;54;1138655;-66
2022/12/07 03:53:45;;;;;;;8.38;5.90;;;;;;;1.96;100.00;100043.18;5060667;56;1136851;-69
2022/12/07 03:58:51;;;;;;;10.47;5.27;;;;;;;1.83;100.00;100037.73;5213540;54;1136736;-67
2022/12/07 04:03:58;;;;;;;11.07;6.00;;;;;;;1.71;100.00;100033.95;5276183;54;1138815;-67
2022/12/07 04:09:05;;;;;;;5.63;4.60;;;;;;;1.62;100.00;100035.71;5199956;55;1138931;-70
2022/12/07 04:14:20;;;;;;;6.23;4.67;;;;;;;1.58;100.00;100028.95;5189831;55;1136607;-68
2022/12/07 04:19:29;;;;;;;4.47;4.07;;;;;;;1.58;100.00;100028.95;5234080;55;1136801;-69
2022/12/07 04:24:35;;;;;;;4.70;3.80;;;;;;;1.61;100.00;100027.96;5193686;55;1136699;-68
2022/12/07 04:29:41;;;;;;;10.32;6.42;;;;;;;1.63;100.00;100030.04;5191717;55;1136586;-69
2022/12/07 04:34:46;;;;;;;6.53;4.90;;;;;;;1.65;100.00;100020.39;5281520;54;1138770;-67
2022/12/07 04:39:52;;;;;;;4.53;4.10;;;;;;;1.70;100.00;99997.52;5087746;56;1136766;-67
2022/12/07 04:44:58;;;;;;;5.10;4.50;;;;;;;1.73;100.00;100005.20;5176074;54;1134675;-68
2022/12/07 04:50:05;;;;;;;6.13;4.73;;;;;;;1.70;100.00;100011.86;5182389;55;1136738;-66
2022/12/07 04:55:12;;;;;;;6.27;4.63;;;;;;;1.68;100.00;100020.24;5202718;55;1136590;-69
2022/12/07 05:00:18;;;;;;;6.00;4.53;;;;;;;1.64;100.00;100010.42;5211369;54;1136570;-68
2022/12/07 05:05:24;;;;;;;6.80;5.00;;;;;;;1.65;100.00;100008.20;5200706;55;1136567;-66
2022/12/07 05:10:29;;;;;;;6.07;4.87;;;;;;;1.63;100.00;100000.91;5209706;55;1136687;-69
2022/12/07 05:15:35;;;;;;;6.03;5.00;;;;;;;1.63;100.00;99998.77;5126388;56;1136676;-70
2022/12/07 05:20:42;;;;;;;5.87;5.28;;;;;;;1.64;100.00;99992.63;5126452;56;1134502;-70
2022/12/07 05:25:48;;;;;;;7.30;5.77;;;;;;;1.64;100.00;99986.11;5126725;56;1134765;-67
2022/12/07 05:30:54;;;;;;;5.97;5.30;;;;;;;1.64;100.00;99989.56;5147678;55;1134482;-68
2022/12/07 05:36:07;;;;;;;8.80;6.80;;;;;;;1.65;100.00;99980.83;5205303;55;1134721;-68
2022/12/07 05:42:11;;;;;;;8.70;6.53;;;;;;;1.67;100.00;99987.27;5193944;54;1134539;-68
2022/12/07 05:46:19;;;;;;;8.47;6.70;;;;;;;1.70;100.00;99985.80;5191874;54;1134637;-68
2022/12/07 05:51:24;;;;;;;10.00;7.53;;;;;;;1.73;100.00;99979.97;5215383;54;1134524;-67
2022/12/07 05:56:30;;;;;;;8.67;6.87;;;;;;;1.75;100.00;99979.44;5215440;54;1136664;-69
2022/12/07 06:01:36;;;;;;;7.27;5.87;;;;;;;1.78;100.00;99973.69;5244950;54;1134723;-68
2022/12/07 06:06:41;;;;;;;10.77;7.50;;;;;;;1.80;100.00;99973.16;5257381;54;1135641;-67
2022/12/07 06:17:12;;;;;;;10.13;6.93;;;;;;;1.78;100.00;99975.84;5211663;54;1136573;-68
2022/12/07 06:22:17;;;;;;;11.07;7.80;;;;;;;1.79;100.00;99971.47;5191257;54;1136631;-69
2022/12/07 06:27:23;;;;;;;12.03;7.70;;;;;;;1.80;100.00;99969.25;5190869;54;1136782;-69
2022/12/07 06:32:29;;;;;;;8.90;7.27;;;;;;;1.79;100.00;99965.80;5228254;54;1136772;-67
2022/12/07 06:37:35;;;;;;;12.33;7.67;;;;;;;1.80;100.00;99966.19;5211933;54;1134638;-69
2022/12/07 06:42:41;;;;;;;8.95;7.92;;;;;;;1.80;100.00;99960.97;5281456;54;1136988;-70
2022/12/07 06:47:47;;;;;;;15.75;7.87;;;;;;;1.82;100.00;99965.65;5113557;56;1134580;-67
2022/12/07 06:52:53;;;;;;;13.10;8.73;;;;;;;1.83;100.00;99959.98;5311850;54;1136625;-70
2022/12/07 06:57:59;;;;;;;11.97;9.10;;;;;;;1.84;100.00;99962.94;5271752;54;1136563;-69
2022/12/07 07:03:05;;;;;;;8.90;7.27;;;;;;;1.85;100.00;99965.93;5207019;55;1230672;-68
2022/12/07 07:08:11;;;;;;;12.83;8.40;;;;;;;1.84;100.00;99959.03;5233352;55;1134765;-66
2022/12/07 07:13:17;;;;;;;9.10;6.57;;;;;;;1.84;100.00;99956.42;5225179;54;1136852;-69
2022/12/07 07:18:23;;;;;;;13.17;8.60;;;;;;;1.84;100.00;99947.30;5213169;55;1134674;-70
2022/12/07 07:23:29;;;;;;;10.93;7.85;;;;;;;1.85;100.00;99947.67;5233109;54;1136607;-66
2022/12/07 07:28:34;;;;;;;9.07;6.97;;;;;;;1.87;100.00;99949.75;5213078;54;1136781;-66
2022/12/07 07:33:40;;;;;;;10.63;6.95;;;;;;;1.88;100.00;99945.77;5275180;54;1134515;-69
2022/12/07 07:38:46;;;;;;;11.30;7.50;;;;;;;1.92;100.00;99949.07;5267714;54;1136840;-70
2022/12/07 07:43:52;;;;;;;11.70;8.00;;;;;;;1.91;100.00;99946.92;5220717;55;1136713;-71
2022/12/07 07:48:57;;;;;;;9.77;7.80;;;;;;;1.89;100.00;99940.94;5210460;54;1136709;-69
2022/12/07 07:54:03;;;;;;;10.87;8.03;;;;;;;1.89;100.00;99940.94;5214912;54;1134610;-69
2022/12/07 07:59:09;;;;;;;10.23;8.07;;;;;;;1.89;100.00;99933.57;5235097;54;1136565;-69
2022/12/07 08:04:15;;;;;;;8.40;6.27;;;;;;;1.90;100.00;99937.87;5192895;54;1136526;-68
2022/12/07 08:09:21;;;;;;;8.00;6.30;;;;;;;1.86;100.00;99931.95;5181744;55;1134676;-69
2022/12/07 08:14:28;;;;;;;8.23;5.53;;;;;;;1.87;100.00;99928.44;5184735;54;1134642;-65
2022/12/07 08:19:34;;;;;;;7.20;6.50;;;;;;;1.90;100.00;99928.74;5192057;54;1134729;-69
2022/12/07 08:24:40;;;;;;;12.13;6.80;;;;;;;1.91;100.00;99926.06;5181782;55;1134686;-69
2022/12/07 08:29:46;;;;;;;7.80;5.77;;;;;;;1.94;100.00;99922.00;5166483;54;1136853;-71
2022/12/07 08:34:53;;;;;;;7.08;5.40;;;;;;;1.98;100.00;99918.31;5209935;54;1134644;-66
2022/12/07 08:39:59;;;;;;;10.13;7.43;;;;;;;1.99;100.00;99918.67;5155121;55;1134509;-71
2022/12/07 08:45:09;;;;;;;13.37;7.60;;;;;;;1.98;100.00;99915.70;5191115;55;1136626;-67
2022/12/07 08:50:15;;;;;;;9.73;7.13;;;;;;;1.92;100.00;99909.50;5223899;54;1136727;-68
2022/12/07 08:55:21;;;;;;;6.75;5.75;;;;;;;1.88;100.00;99905.81;5210169;54;1169662;-67
2022/12/07 09:00:27;;;;;;;7.90;6.13;;;;;;;1.85;100.00;99902.05;5191619;55;1134913;-68
2022/12/07 09:05:34;;;;;;;11.10;7.03;;;;;;;1.84;100.00;99899.06;5126064;55;1134566;-70
2022/12/07 09:10:40;;;;;;;9.97;6.70;;;;;;;1.85;100.00;99891.63;5125736;54;1136719;-68
2022/12/07 09:15:46;;;;;;;8.20;6.53;;;;;;;1.86;100.00;99886.80;5192024;54;1134746;-70
2022/12/07 09:20:51;;;;;;;6.40;4.73;;;;;;;1.87;100.00;99890.62;5212218;54;1134821;-68
2022/12/07 09:26:04;;;;;;;8.60;7.37;;;;;;;1.80;100.00;99883.22;5206930;54;1134587;-68
2022/12/07 09:31:10;;;;;;;8.10;5.33;;;;;;;1.74;100.00;99883.06;5209576;54;1134882;-67
2022/12/07 09:36:16;;;;;;;10.90;6.30;;;;;;;1.71;100.00;99876.70;5210972;55;1134540;-68
2022/12/07 09:41:23;;;;;;;22.00;11.80;;;;;;;1.63;100.00;99867.98;5150520;54;1136723;-69
2022/12/07 09:46:30;;;;;;;10.90;7.43;;;;;;;1.59;100.00;99862.54;5185105;54;1138686;-70
2022/12/07 09:51:36;;;;;;;10.67;6.70;;;;;;;1.55;100.00;99867.52;5261702;54;1136722;-69
2022/12/07 09:56:43;;;;;;;13.10;8.25;;;;;;;1.50;100.00;99851.30;5275298;54;1192298;-68
2022/12/07 10:01:51;;;;;;;11.47;7.50;;;;;;;1.48;100.00;99856.20;5199108;54;1244843;-66
2022/12/07 10:06:57;;;;;;;12.70;8.63;;;;;;;1.43;100.00;99850.37;5234798;54;1236042;-68
2022/12/07 10:12:08;;;;;;;17.23;12.03;;;;;;;1.39;100.00;99840.55;5210748;54;1136630;-68
2022/12/07 10:17:43;;;;;;;14.70;9.20;;;;;;;1.39;100.00;99830.13;5127165;55;1246474;-67
2022/12/07 10:23:01;;;;;;;12.80;8.20;;;;;;;1.43;100.00;99821.70;5194604;55;1137162;-70
2022/12/07 10:28:17;;;;;;;17.92;9.60;;;;;;;1.47;100.00;99818.87;5074086;56;1137183;-66
2022/12/07 10:33:39;;;;;;;16.17;10.67;;;;;;;1.47;100.00;99807.15;5044373;56;1251590;-67
2022/12/07 10:38:51;;;;;;;19.97;11.70;;;;;;;1.44;100.00;99804.70;5204678;55;1180138;-71
2022/12/07 10:43:58;;;;;;;24.30;13.50;;;;;;;1.45;100.00;99805.54;5240602;54;1238175;-67
2022/12/07 10:49:21;;;;;;;27.70;12.73;;;;;;;1.44;100.00;99799.48;5261086;54;1252989;-68
2022/12/07 10:55:03;;;;;;;21.17;14.37;;;;;;;1.43;100.00;99789.98;5206260;54;1250819;-68
2022/12/07 11:00:26;;;;;;;12.50;9.20;;;;;;;1.40;100.00;99785.77;5133022;55;1252218;-67
2022/12/07 11:05:42;;;;;;;15.25;8.73;;;;;;;1.41;100.00;99782.24;5217021;54;1164692;-66
2022/12/07 11:11:21;;;;;;;18.05;11.12;;;;;;;1.37;100.00;99766.88;5243275;54;1137472;-68
2022/12/07 11:16:46;;;;;;;15.73;11.73;;;;;;;1.36;100.00;99769.09;5239337;54;1139585;-71
2022/12/07 11:22:01;;;;;;;27.82;16.32;;;;;;;1.35;100.00;99754.38;5250671;54;1138786;-69
2022/12/07 11:27:23;;;;;;;46.40;25.67;;;;;;;1.37;100.00;99755.16;5265188;54;1138923;-66
2022/12/07 11:32:48;;;;;;;34.40;19.73;;;;;;;1.35;100.00;99750.02;5272904;54;1138849;-69
2022/12/07 11:38:04;;;;;;;24.47;13.65;;;;;;;1.36;100.00;99746.49;5278611;54;1138803;-71
2022/12/07 11:43:32;;;;;;;54.40;28.07;;;;;;;1.35;100.00;99735.69;5277756;54;1138801;-68
2022/12/07 11:48:48;;;;;;;23.32;12.85;;;;;;;1.36;100.00;99736.07;5209803;54;1139062;-67
2022/12/07 11:54:04;;;;;;;19.13;12.30;;;;;;;1.36;100.00;99739.98;5183239;54;1138921;-67
2022/12/07 11:59:16;;;;;;;14.63;8.90;;;;;;;1.34;100.00;99727.48;5116836;55;1208456;-71
2022/12/07 12:04:30;;;;;;;;;;;;;;;1.37;100.00;99719.98;5172536;54;1143905;-66
2022/12/07 12:09:41;;;;;;;17.53;9.70;;;;;;;1.35;100.00;99723.12;5144873;55;971948;-68
2022/12/07 12:15:19;;;;;;;13.23;8.43;;;;;;;1.30;100.00;99716.00;5150749;54;1172613;-70
2022/12/07 12:20:46;;;;;;;27.07;14.60;;;;;;;1.26;100.00;99717.08;5127093;55;1136717;-66
2022/12/07 12:26:02;;;;;;;12.55;8.20;;;;;;;1.25;100.00;99708.42;5127837;55;1146320;-66
2022/12/07 12:31:21;;;;;;;14.87;8.63;;;;;;;1.26;100.00;99710.10;5152485;55;1136608;-68
2022/12/07 12:36:43;;;;;;;12.87;6.87;;;;;;;1.25;100.00;99704.52;5184492;54;1136699;-68
2022/12/07 12:47:25;;;;;;;13.93;9.10;;;;;;;1.33;100.00;99695.00;5108817;54;1136749;-65
2022/12/07 12:52:47;;;;;;;12.03;8.63;;;;;;;1.39;100.00;99693.36;5230723;54;1136785;-67
2022/12/07 12:58:22;;;;;;;11.00;7.45;;;;;;;1.44;100.00;99691.82;5215464;54;1136748;-69
2022/12/07 13:03:34;;;;;;;13.77;7.73;;;;;;;1.46;100.00;99686.91;5231669;54;1136579;-67
2022/12/07 13:08:41;;;;;;;14.27;7.40;;;;;;;1.50;100.00;99694.95;5255258;54;1136647;-70
2022/12/07 13:13:47;;;;;;;11.10;7.28;;;;;;;1.48;100.00;99690.74;5203574;54;1136823;-71
2022/12/07 13:18:53;;;;;;;6.73;4.80;;;;;;;1.43;100.00;99690.14;5204422;54;1146343;-72
2022/12/07 13:24:01;;;;;;;14.40;6.20;;;;;;;1.44;100.00;99692.66;5224125;55;1134727;-67
2022/12/07 13:29:23;;;;;;;11.10;8.20;;;;;;;1.44;100.00;99701.78;5209378;54;1136530;-68
2022/12/07 13:34:37;;;;;;;9.77;5.90;;;;;;;1.47;100.00;99708.59;5217390;54;1136577;-67
2022/12/07 13:39:53;;;;;;;9.83;6.60;;;;;;;1.49;100.00;99712.81;5182836;54;1134911;-71
2022/12/07 13:45:03;;;;;;;8.78;6.10;;;;;;;1.50;100.00;99717.10;5147464;55;1134562;-70
2022/12/07 13:50:31;;;;;;;10.27;6.57;;;;;;;1.50;100.00;99713.66;5171769;55;1134534;-67
2022/12/07 13:55:36;;;;;;;9.73;6.33;;;;;;;1.54;100.00;99721.20;5126249;55;1137030;-67
2022/12/07 14:00:44;;;;;;;9.83;5.70;;;;;;;1.55;100.00;99728.09;5162032;55;1134710;-70
2022/12/07 14:06:09;;;;;;;14.03;6.53;;;;;;;1.58;100.00;99737.06;5222809;54;1134865;-69
2022/12/07 14:11:21;;;;;;;7.53;5.33;;;;;;;1.58;100.00;99733.61;5165279;55;1136601;-70
2022/12/07 14:16:38;;;;;;;8.40;4.80;;;;;;;1.57;100.00;99747.11;5181365;55;1134662;-70
2022/12/07 14:21:44;;;;;;;13.07;7.77;;;;;;;1.55;100.00;99740.28;5181392;55;1134760;-72
2022/12/07 14:26:51;;;;;;;94.93;34.13;;;;;;;1.52;100.00;99743.08;5201630;55;1146019;-70
2022/12/07 14:31:59;;;;;;;11.93;7.40;;;;;;;1.48;100.00;99742.86;5199766;54;1138993;-66
2022/12/07 14:37:08;;;;;;;15.90;7.33;;;;;;;1.44;100.00;99755.19;5163013;55;1136661;-71
2022/12/07 14:42:14;;;;;;;12.83;6.57;;;;;;;1.43;100.00;99756.11;5176481;55;1136574;-67
2022/12/07 14:47:20;;;;;;;7.63;4.97;;;;;;;1.41;100.00;99756.19;5197818;55;1136714;-70
2022/12/07 14:52:29;;;;;;;9.03;5.87;;;;;;;1.41;100.00;99768.38;5204326;54;1134669;-69
2022/12/07 14:57:35;;;;;;;9.00;5.33;;;;;;;1.40;100.00;99766.69;5253556;54;1134749;-72
2022/12/07 15:02:41;;;;;;;4.90;3.60;;;;;;;1.38;100.00;99773.28;5181745;54;1134739;-70
2022/12/07 15:07:48;;;;;;;8.70;5.33;;;;;;;1.35;100.00;99773.46;5034569;56;1134742;-71
2022/12/07 15:12:54;;;;;;;4.90;4.40;;;;;;;1.33;100.00;99772.70;5217616;54;1134754;-70
2022/12/07 15:17:59;;;;;;;9.75;5.65;;;;;;;1.34;100.00;99778.29;5241738;54;1134577;-68
2022/12/07 15:23:07;;;;;;;7.07;5.50;;;;;;;1.31;100.00;99774.98;5184300;54;1134641;-67
2022/12/07 15:28:13;;;;;;;9.87;5.60;;;;;;;1.29;100.00;99778.13;5288031;54;1134539;-70
2022/12/07 15:33:19;;;;;;;8.37;5.47;;;;;;;1.25;100.00;99782.65;5304929;54;1134577;-68
2022/12/07 15:38:27;;;;;;;5.90;4.10;;;;;;;1.22;100.00;99784.59;5259962;54;1134568;-69
2022/12/07 15:48:56;;;;;;;6.30;4.47;;;;;;;1.11;100.00;99785.58;5294534;54;1134722;-70
2022/12/07 15:54:01;;;;;;;5.55;3.50;;;;;;;1.04;100.00;99790.27;5315102;54;1134639;-71
2022/12/07 15:59:09;;;;;;;8.60;3.43;;;;;;;0.96;100.00;99788.03;5269894;54;1134678;-69
2022/12/07 16:04:15;;;;;;;6.63;5.00;;;;;;;0.88;100.00;99786.74;5229683;54;1134509;-68
2022/12/07 16:09:21;;;;;;;6.83;3.70;;;;;;;0.79;100.00;99788.02;5178560;54;1134759;-69
2022/12/07 16:14:27;;;;;;;8.23;5.40;;;;;;;0.80;100.00;99787.56;5214256;54;1134659;-72
2022/12/07 16:19:33;;;;;;;5.50;4.37;;;;;;;0.74;100.00;99791.33;5156162;54;1134601;-68
2022/12/07 16:24:41;;;;;;;5.75;4.45;;;;;;;0.68;100.00;99796.36;5288061;54;1134821;-71
2022/12/07 16:29:46;;;;;;;8.73;5.10;;;;;;;0.61;100.00;99792.36;5227503;53;1134575;-71
2022/12/07 16:34:52;;;;;;;9.90;6.00;;;;;;;0.54;100.00;99781.88;5216435;54;1134590;-70
2022/12/07 16:39:58;;;;;;;19.37;8.63;;;;;;;0.50;100.00;99788.59;5212237;54;1134658;-67
2022/12/07 16:45:05;;;;;;;5.00;4.22;;;;;;;0.48;100.00;99799.53;5169264;55;1136704;-71
2022/12/07 16:50:11;;;;;;;7.23;5.20;;;;;;;0.46;100.00;99789.68;5242447;54;1134788;-69
2022/12/07 16:55:18;;;;;;;4.50;3.40;;;;;;;0.44;100.00;99794.11;5283791;54;1134537;-68
2022/12/07 17:00:23;;;;;;;11.43;6.70;;;;;;;0.44;100.00;99789.75;5227948;54;1134601;-69
2022/12/07 17:05:29;;;;;;;5.73;4.07;;;;;;;0.46;100.00;99783.18;5179333;54;1136692;-68
2022/12/07 17:10:39;;;;;;;7.90;4.17;;;;;;;0.46;100.00;99784.48;5155226;54;1134620;-70
2022/12/07 17:15:45;;;;;;;6.70;3.90;;;;;;;0.48;100.00;99784.77;5189551;54;1134694;-68
2022/12/07 17:20:50;;;;;;;7.20;4.37;;;;;;;0.48;100.00;99788.66;5220992;54;1134715;-67
2022/12/07 17:25:56;;;;;;;11.05;4.60;;;;;;;0.49;100.00;99792.95;5214372;54;1134866;-69
2022/12/07 17:31:02;;;;;;;5.73;2.87;;;;;;;0.50;100.00;99802.45;5145043;55;1138055;-70
2022/12/07 17:36:23;;;;;;;6.77;3.90;;;;;;;0.48;100.00;99794.33;5118836;55;1134512;-71
2022/12/07 17:46:44;;;;;;;8.07;3.63;;;;;;;0.49;100.00;99800.76;5187269;54;1136724;-70
2022/12/07 17:57:15;;;;;;;15.03;4.37;;;;;;;0.51;100.00;99796.33;5190465;54;1134622;-72
2022/12/07 18:02:21;;;;;;;12.97;5.87;;;;;;;0.53;100.00;99793.66;5193865;54;1136753;-68
2022/12/07 18:07:28;;;;;;;9.73;4.70;;;;;;;0.57;100.00;99790.00;5144784;55;1136826;-67
2022/12/07 18:12:34;;;;;;;9.83;5.17;;;;;;;0.57;100.00;99790.00;5118739;55;1134542;-68
2022/12/07 18:17:41;;;;;;;15.47;3.43;;;;;;;0.55;100.00;99795.27;5155420;55;1134513;-70
2022/12/07 18:22:47;;;;;;;11.70;5.20;;;;;;;0.56;100.00;99787.86;5179423;55;1136843;-71
2022/12/07 18:27:53;;;;;;;12.50;4.87;;;;;;;0.56;100.00;99794.81;5185767;55;1136842;-68
2022/12/07 18:32:58;;;;;;;8.50;4.80;;;;;;;0.55;100.00;99788.77;5146770;55;1136821;-69
2022/12/07 18:38:04;;;;;;;15.60;5.43;;;;;;;0.55;100.00;99789.23;5136668;55;1134632;-71
2022/12/07 18:43:11;;;;;;;20.53;10.93;;;;;;;0.50;100.00;99786.84;5140247;55;1136809;-69
2022/12/07 18:48:18;;;;;;;17.93;10.07;;;;;;;0.48;100.00;99789.97;5162722;55;1138747;-66
2022/12/07 18:53:24;;;;;;;40.53;14.43;;;;;;;0.46;100.00;99794.39;5138894;55;1138801;-65
2022/12/07 18:58:30;;;;;;;6.73;4.07;;;;;;;0.47;100.00;99796.54;5159120;55;1138730;-68
2022/12/07 19:03:36;;;;;;;20.55;8.73;;;;;;;0.41;100.00;99792.49;5200242;55;1134767;-69
2022/12/07 19:08:41;;;;;;;14.40;7.17;;;;;;;0.40;100.00;99793.41;5166223;54;1136887;-67
2022/12/07 19:13:47;;;;;;;23.27;10.50;;;;;;;0.36;100.00;99797.06;5165793;55;1137021;-69
2022/12/07 19:18:53;;;;;;;11.47;6.10;;;;;;;0.33;100.00;99788.94;5191372;54;1143004;-70
2022/12/07 19:23:59;;;;;;;23.35;10.95;;;;;;;0.31;100.00;99789.47;5215192;54;1136674;-70
2022/12/07 19:29:05;;;;;;;13.00;5.93;;;;;;;0.29;100.00;99789.17;5215252;54;1138686;-70
2022/12/07 19:34:14;;;;;;;7.37;3.90;;;;;;;0.27;100.00;99801.41;5176518;54;1136893;-68
2022/12/07 19:39:20;;;;;;;11.97;5.75;;;;;;;0.27;100.00;99798.80;5101840;55;1134751;-68
2022/12/07 19:44:29;;;;;;;6.80;4.63;;;;;;;0.26;100.00;99799.72;5115394;55;1136653;-68
2022/12/07 19:49:36;;;;;;;8.60;4.20;;;;;;;0.24;100.00;99806.74;5188841;54;1134497;-71
2022/12/07 19:54:42;;;;;;;10.97;4.70;;;;;;;0.20;100.00;99802.13;5190651;55;1134650;-69
2022/12/07 19:59:48;;;;;;;17.27;4.33;;;;;;;0.16;100.00;99797.14;5190618;55;1136622;-69
2022/12/07 20:04:54;;;;;;;11.00;4.40;;;;;;;0.15;100.00;99801.53;5193447;55;1136944;-72
2022/12/07 20:09:59;;;;;;;10.53;3.73;;;;;;;0.13;100.00;99805.95;5161152;55;1136781;-69
2022/12/07 20:15:05;;;;;;;9.85;5.50;;;;;;;0.06;100.00;99808.44;5126711;55;1136654;-71
2022/12/07 20:20:12;;;;;;;10.93;4.83;;;;;;;0.06;100.00;99808.44;5126557;55;1134693;-70
2022/12/07 20:25:18;;;;;;;3.20;2.60;;;;;;;0.11;100.00;99816.03;5203195;55;1136559;-67
2022/12/07 20:30:24;;;;;;;10.77;2.50;;;;;;;0.11;100.00;99810.37;5113813;56;1134669;-69
2022/12/07 20:35:30;;;;;;;8.13;3.10;;;;;;;0.14;100.00;99812.84;5163636;55;1136562;-70
2022/12/07 20:40:36;;;;;;;6.43;2.47;;;;;;;0.18;100.00;99811.77;5220656;54;1134691;-67
2022/12/07 20:45:49;;;;;;;9.97;2.67;;;;;;;0.20;100.00;99814.30;5211122;55;1134518;-71
2022/12/07 20:50:54;;;;;;;;;;;;;;;0.22;100.00;99816.38;5217152;54;1134686;-70
2022/12/07 20:56:01;;;;;;;5.85;2.92;;;;;;;0.23;100.00;99815.00;5239126;54;971971;-67
2022/12/07 21:01:07;;;;;;;6.83;2.55;;;;;;;0.23;100.00;99824.56;5217863;54;1132619;-70
2022/12/07 21:06:15;;;;;;;7.87;2.73;;;;;;;0.24;100.00;99830.99;5291823;54;1134758;-70
2022/12/07 21:11:26;;;;;;;6.20;2.60;;;;;;;0.24;100.00;99821.89;5201322;54;1134627;-68
2022/12/07 21:16:33;;;;;;;8.78;2.65;;;;;;;0.25;100.00;99827.48;5154191;55;1134488;-67
2022/12/07 21:21:39;;;;;;;53.40;20.57;;;;;;;0.24;100.00;99833.59;5210513;54;1134718;-69
2022/12/07 21:26:45;;;;;;;6.50;2.07;;;;;;;0.24;100.00;99833.59;5246513;54;1138952;-67
2022/12/07 21:31:50;;;;;;;9.57;5.23;;;;;;;0.27;100.00;99843.02;5262978;54;1134543;-67
2022/12/07 21:36:56;;;;;;;10.40;2.67;;;;;;;0.29;100.00;99846.39;5247929;54;1134548;-70
2022/12/07 21:42:02;;;;;;;10.08;3.05;;;;;;;0.30;100.00;99850.23;5279247;54;1136668;-66
2022/12/07 21:47:08;;;;;;;19.57;5.12;;;;;;;0.31;100.00;99857.54;5315382;54;1136719;-68
2022/12/07 21:52:13;;;;;;;9.00;3.43;;;;;;;0.32;100.00;99863.97;5294062;54;1136718;-68
2022/12/07 21:57:19;;;;;;;7.47;2.00;;;;;;;0.35;100.00;99868.20;5294616;54;1134629;-69
2022/12/07 22:02:24;;;;;;;7.25;2.12;;;;;;;0.35;100.00;99869.50;5268521;54;1134497;-70
2022/12/07 22:07:30;;;;;;;4.60;2.10;;;;;;;0.35;100.00;99870.34;5172008;54;1134718;-72
2022/12/07 22:12:36;;;;;;;5.13;2.13;;;;;;;0.33;100.00;99876.52;5124564;54;1134657;-66
2022/12/07 22:17:42;;;;;;;3.13;1.83;;;;;;;0.34;100.00;99882.95;5117016;56;1134731;-69
2022/12/07 22:22:49;;;;;;;5.07;2.33;;;;;;;0.32;100.00;99882.18;5136777;55;1134723;-71
2022/12/07 22:27:54;;;;;;;13.40;2.30;;;;;;;0.32;100.00;99876.98;5116866;56;1134859;-69
2022/12/07 22:33:00;;;;;;;2.45;1.80;;;;;;;0.32;100.00;99880.03;5160218;54;1136715;-72
2022/12/07 22:38:05;;;;;;;6.83;2.03;;;;;;;0.32;100.00;99876.98;5203504;54;1134636;-67
2022/12/07 22:43:11;;;;;;;5.17;1.87;;;;;;;0.35;100.00;99883.34;5124127;55;1134534;-70
2022/12/07 22:48:17;;;;;;;5.53;2.07;;;;;;;0.30;100.00;99882.73;5116775;56;1134768;-68
2022/12/07 22:53:24;;;;;;;7.57;1.97;;;;;;;0.32;100.00;99887.38;5137107;56;1134626;-71
2022/12/07 22:58:30;;;;;;;8.33;3.57;;;;;;;0.29;100.00;99887.55;5117162;56;1134523;-68
2022/12/07 23:03:36;;;;;;;4.37;2.00;;;;;;;0.30;100.00;99891.84;5186111;55;1134650;-68
2022/12/07 23:08:41;;;;;;;4.90;2.27;;;;;;;0.31;100.00;99890.89;5224398;55;1134468;-68
2022/12/07 23:13:47;;;;;;;5.40;3.20;;;;;;;0.30;100.00;99887.94;5187521;55;1134518;-71
2022/12/07 23:18:53;;;;;;;2.93;1.40;;;;;;;0.32;100.00;99883.94;5177025;55;1241326;-71
2022/12/07 23:23:58;;;;;;;4.65;1.62;;;;;;;0.31;100.00;99885.69;5198962;55;1142681;-70
2022/12/07 23:29:04;;;;;;;6.67;2.63;;;;;;;0.28;100.00;99875.91;5183110;55;1134566;-67
2022/12/07 23:34:11;;;;;;;10.20;2.33;;;;;;;0.26;100.00;99885.08;5182230;55;1134570;-69
2022/12/07 23:39:17;;;;;;;9.47;1.87;;;;;;;0.21;100.00;99881.84;5177424;55;1136544;-71
2022/12/07 23:44:22;;;;;;;5.00;2.10;;;;;;;0.19;100.00;99888.86;5080051;56;1134506;-70
2022/12/07 23:49:28;;;;;;;9.60;1.70;;;;;;;0.18;100.00;99881.97;5092003;56;1134505;-69
2022/12/07 23:54:33;;;;;;;6.97;1.98;;;;;;;0.14;100.00;99892.14;5111998;56;1134499;-67
2022/12/07 23:59:39;;;;;;;5.47;2.07;;;;;;;0.10;100.00;99903.58;5092523;56;1134623;-70
